Time;durP1;ratioP1;P1;durP2;ratioP2;P2;SDS_P1;SDS_P2;PMS_P1;PMS_P2;Temp;Humidity;BMP_temperature;BMP_pressure;BME280_temperature;BME280_humidity;BME280_pressure;Samples;Min_cycle;Max_cycle;Signal;HPM_P1;HPM_P2
2022/03/22 00:00:44;;;;;;;;;19.33;17.00;;;;;14.79;48.09;102144.28;5027854;28;45328;-59
2022/03/22 00:03:09;;;;;;;;;18.00;16.67;;;;;14.71;47.80;102137.50;5037972;28;45201;-56
2022/03/22 00:05:40;;;;;;;;;24.00;19.67;;;;;14.74;47.88;102145.38;5048647;28;46373;-59
2022/03/22 00:08:06;;;;;;;;;26.67;18.00;;;;;14.67;48.02;102141.25;5035959;28;45373;-57
2022/03/22 00:10:31;;;;;;;;;17.33;17.00;;;;;14.65;47.93;102137.78;5057853;28;45185;-61
2022/03/22 00:12:56;;;;;;;;;16.00;16.00;;;;;14.67;47.76;102151.09;5055776;28;45698;-60
2022/03/22 00:15:22;;;;;;;;;17.67;16.33;;;;;14.69;47.78;102154.56;5048701;28;45443;-54
2022/03/22 00:17:47;;;;;;;;;20.33;17.33;;;;;14.66;47.57;102150.22;5055446;28;45293;-57
2022/03/22 00:20:13;;;;;;;;;21.67;17.00;;;;;14.66;47.67;102157.41;5056540;28;45515;-56
2022/03/22 00:22:39;;;;;;;;;18.00;18.00;;;;;14.62;48.18;102148.66;5039819;28;45447;-52
2022/03/22 00:25:09;;;;;;;;;15.33;15.00;;;;;14.61;47.46;102156.75;5045261;28;46241;-60
2022/03/22 00:27:53;;;;;;;;;16.67;16.33;;;;;14.58;48.17;102154.22;5057323;28;45402;-56
2022/03/22 00:30:20;;;;;;;;;20.00;18.33;;;;;14.56;47.75;102167.69;5058010;28;45518;-53
2022/03/22 00:32:46;;;;;;;;;19.00;19.00;;;;;14.54;48.17;102155.31;5055879;28;45497;-60
2022/03/22 00:35:12;;;;;;;;;22.00;18.33;;;;;14.52;47.74;102163.41;5054929;28;47499;-58
2022/03/22 00:37:42;;;;;;;;;26.33;22.00;;;;;14.47;47.93;102159.25;5041610;28;45452;-58
2022/03/22 00:40:14;;;;;;;;;23.33;22.00;;;;;14.41;48.05;102146.97;5056926;28;45502;-59
2022/03/22 00:42:40;;;;;;;;;22.00;18.00;;;;;14.26;48.07;102145.00;5051735;28;45469;-57
2022/03/22 00:45:06;;;;;;;;;18.00;18.00;;;;;14.34;47.76;102154.44;5046024;28;45907;-62
2022/03/22 00:47:32;;;;;;;;;16.67;16.00;;;;;14.36;48.43;102170.41;5043333;28;45470;-58
2022/03/22 00:49:57;;;;;;;;;20.33;20.33;;;;;14.36;47.79;102170.41;5038629;28;45307;-63
2022/03/22 00:52:24;;;;;;;;;21.00;19.25;;;;;14.26;48.09;102153.91;5057076;28;45376;-62
2022/03/22 00:54:49;;;;;;;;;20.33;16.33;;;;;14.29;48.78;102167.13;5027052;28;45556;-64
2022/03/22 00:57:14;;;;;;;;;18.00;17.33;;;;;14.29;48.53;102163.59;5053357;28;45405;-63
2022/03/22 01:02:24;;;;;;;;;17.00;14.67;;;;;14.26;48.40;102169.09;5055431;28;45613;-61
2022/03/22 01:04:49;;;;;;;;;19.67;19.67;;;;;14.26;48.21;102171.78;5056624;28;46024;-59
2022/03/22 01:07:15;;;;;;;;;21.67;20.67;;;;;14.21;48.18;102163.97;5051092;28;45264;-58
2022/03/22 01:09:40;;;;;;;;;23.33;17.00;;;;;14.19;47.38;102171.16;5057441;28;45761;-57
2022/03/22 01:12:06;;;;;;;;;27.33;21.33;;;;;14.17;47.76;102168.56;5042921;28;45515;-59
2022/03/22 01:14:31;;;;;;;;;21.67;18.33;;;;;14.12;47.17;102164.38;5047602;28;45503;-60
2022/03/22 01:16:57;;;;;;;;;18.33;16.67;;;;;14.10;47.52;102160.91;5037930;28;45531;-62
2022/03/22 01:19:22;;;;;;;;;18.25;16.75;;;;;14.11;47.45;102165.31;5036743;28;45293;-58
2022/03/22 01:21:49;;;;;;;;;13.50;13.50;;;;;14.08;46.91;102157.44;5039171;28;45300;-60
2022/03/22 01:24:15;;;;;;;;;21.75;18.00;;;;;14.05;47.24;102158.44;5056861;28;46226;-59
2022/03/22 01:26:41;;;;;;;;;18.75;18.50;;;;;14.05;47.30;102169.13;5053314;28;45446;-55
2022/03/22 01:29:07;;;;;;;;;18.75;16.25;;;;;14.03;46.91;102154.97;5037348;28;45508;-60
2022/03/22 01:31:32;;;;;;;;;21.67;19.00;;;;;14.01;47.22;102156.84;5053284;28;45797;-60
2022/03/22 01:33:58;;;;;;;;;19.67;15.33;;;;;14.01;46.84;102159.50;5046294;28;45490;-57
2022/03/22 01:36:23;;;;;;;;;22.67;20.67;;;;;14.00;47.06;102156.91;5044881;28;45435;-59
2022/03/22 01:38:48;;;;;;;;;20.33;18.67;;;;;13.97;47.53;102157.06;5056838;28;45240;-58
2022/03/22 01:41:14;;;;;;;;;26.67;20.67;;;;;13.94;47.25;102155.41;5050239;28;45561;-61
2022/03/22 01:43:39;;;;;;;;;15.67;15.67;;;;;13.96;46.78;102158.00;5039887;28;45370;-52
2022/03/22 01:46:05;;;;;;;;;21.00;19.33;;;;;13.95;47.09;102157.13;5040678;28;45507;-55
2022/03/22 01:48:31;;;;;;;;;19.67;17.33;;;;;13.93;46.53;102148.28;5036609;28;45407;-59
2022/03/22 01:50:57;;;;;;;;;21.33;17.67;;;;;13.93;46.87;102153.63;5037138;28;45349;-59
2022/03/22 01:53:23;;;;;;;;;21.00;18.67;;;;;13.90;46.19;102153.78;5036319;28;48255;-57
2022/03/22 01:55:48;;;;;;;;;17.67;14.33;;;;;13.70;46.25;102121.72;5052379;28;45485;-58
2022/03/22 01:58:14;;;;;;;;;21.33;18.33;;;;;13.85;45.75;102147.78;5025491;28;45570;-60
2022/03/22 02:00:39;;;;;;;;;20.00;18.33;;;;;13.86;45.99;102144.16;5039346;28;45303;-64
2022/03/22 02:05:51;;;;;;;;;21.75;18.50;;;;;13.83;46.17;102147.84;5055177;28;45364;-56
2022/03/22 02:08:18;;;;;;;;;15.50;15.25;;;;;13.85;45.66;102147.78;5055996;28;45488;-59
2022/03/22 02:10:44;;;;;;;;;17.75;16.50;;;;;13.81;45.92;102148.88;5037009;28;46024;-58
2022/03/22 02:13:10;;;;;;;;;26.25;20.50;;;;;13.78;46.20;102146.31;5048052;28;45661;-54
2022/03/22 02:15:36;;;;;;;;;21.33;20.00;;;;;13.75;46.26;102144.63;5034520;28;45402;-57
2022/03/22 02:18:02;;;;;;;;;18.33;15.00;;;;;13.71;46.23;102131.50;5036904;28;45387;-58
2022/03/22 02:20:29;;;;;;;;;18.00;18.00;;;;;13.76;46.15;102146.38;5038020;28;45579;-60
2022/03/22 02:23:05;;;;;;;;;19.33;15.67;;;;;13.70;46.68;102145.78;5035998;28;46280;-59
2022/03/22 02:25:32;;;;;;;;;26.67;21.67;;;;;13.69;46.05;102139.56;5046921;28;45406;-59
2022/03/22 02:27:58;;;;;;;;;25.33;22.00;;;;;13.69;46.26;102144.06;5018835;28;45528;-61
2022/03/22 02:30:24;;;;;;;;;19.33;18.00;;;;;13.67;46.47;102140.56;5053262;28;45354;-61
2022/03/22 02:32:51;;;;;;;;;22.67;17.00;;;;;13.61;46.13;102147.06;5024171;28;47385;-60
2022/03/22 02:35:17;;;;;;;;;19.00;17.33;;;;;13.63;46.18;102150.53;5035170;28;45429;-59
2022/03/22 02:37:43;;;;;;;;;24.25;18.50;;;;;13.60;46.30;102157.81;5030714;28;45456;-55
2022/03/22 02:40:10;;;;;;;;;17.00;15.75;;;;;13.55;46.17;102142.88;5053694;28;45473;-64
2022/03/22 02:42:35;;;;;;;;;22.00;18.25;;;;;13.53;45.94;102151.84;5048347;28;45416;-61
2022/03/22 02:45:01;;;;;;;;;17.33;17.33;;;;;13.49;45.66;102151.13;5045572;28;45623;-57
2022/03/22 02:47:26;;;;;;;;;20.67;18.33;;;;;13.44;46.08;102154.94;5046874;28;45912;-57
2022/03/22 02:49:51;;;;;;;;;22.00;18.50;;;;;13.40;45.86;102150.66;5041774;28;45508;-61
2022/03/22 02:52:17;;;;;;;;;21.00;17.75;;;;;13.35;46.29;102150.88;5054734;28;46429;-59
2022/03/22 02:54:42;;;;;;;;;19.00;14.50;;;;;13.29;46.21;102151.13;5050605;28;45450;-63
2022/03/22 02:57:08;;;;;;;;;17.50;17.50;;;;;13.25;46.09;102149.50;5053388;28;45301;-56
2022/03/22 02:59:33;;;;;;;;;19.50;16.75;;;;;13.17;46.17;102140.94;5042794;28;45557;-61
2022/03/22 03:02:00;;;;;;;;;22.75;18.25;;;;;13.18;46.74;102142.66;5052879;28;46121;-57
2022/03/22 03:04:26;;;;;;;;;21.75;17.25;;;;;13.18;46.24;102151.59;5046957;28;45431;-60
2022/03/22 03:06:51;;;;;;;;;20.50;17.25;;;;;13.14;46.54;102152.59;5057984;28;45533;-60
2022/03/22 03:09:17;;;;;;;;;19.67;19.33;;;;;13.13;46.61;102155.34;5057871;28;45535;-61
2022/03/22 03:11:42;;;;;;;;;23.00;21.25;;;;;13.09;46.52;102165.28;5041550;28;46351;-58
2022/03/22 03:16:53;;;;;;;;;20.50;19.00;;;;;13.04;46.73;102167.28;5059948;28;45343;-61
2022/03/22 03:19:18;;;;;;;;;30.75;21.50;;;;;13.04;46.55;102171.75;5041174;28;45361;-58
2022/03/22 03:21:44;;;;;;;;;21.75;21.50;;;;;12.95;46.49;102165.00;5057470;28;45481;-57
2022/03/22 03:24:10;;;;;;;;;23.00;21.75;;;;;12.95;46.60;102168.53;5058827;28;45237;-58
2022/03/22 03:26:35;;;;;;;;;17.25;16.25;;;;;12.95;46.75;102168.53;5040462;28;45252;-55
2022/03/22 03:29:01;;;;;;;;;20.75;17.50;;;;;12.93;47.03;102173.06;5030601;28;45551;-57
2022/03/22 03:31:26;;;;;;;;;25.75;21.00;;;;;12.85;46.71;102160.94;5059341;28;45453;-54
2022/03/22 03:33:52;;;;;;;;;21.75;18.50;;;;;12.84;46.85;102165.41;5044086;28;45433;-58
2022/03/22 03:36:17;;;;;;;;;20.75;19.75;;;;;12.85;47.35;102172.50;5044527;28;45378;-56
2022/03/22 03:38:43;;;;;;;;;20.00;18.00;;;;;12.80;47.16;102169.16;5053422;28;45457;-58
2022/03/22 03:43:54;;;;;;;;;22.50;20.00;;;;;12.78;46.93;102173.69;5049530;28;46676;-58
2022/03/22 03:49:06;;;;;;;;;19.00;19.00;;;;;12.64;47.25;102152.88;5051629;28;45402;-58
2022/03/22 03:51:32;;;;;;;;;24.00;20.25;;;;;12.64;47.10;102168.03;5051657;28;45507;-55
2022/03/22 03:53:57;;;;;;;;;22.50;19.25;;;;;12.64;47.01;102171.56;5051220;28;45540;-57
2022/03/22 03:56:23;;;;;;;;;19.50;16.25;;;;;12.59;46.85;102165.53;5042727;28;45379;-57
2022/03/22 03:58:48;;;;;;;;;22.00;19.00;;;;;12.56;47.45;102164.78;5044718;28;45553;-57
2022/03/22 04:01:14;;;;;;;;;25.50;18.25;;;;;12.65;47.63;102172.44;5049571;28;45883;-54
2022/03/22 04:03:39;;;;;;;;;23.75;20.75;;;;;12.57;47.22;102166.53;5044129;28;45279;-54
2022/03/22 04:06:05;;;;;;;;;20.25;18.25;;;;;12.57;48.20;102178.06;5045596;28;45279;-52
2022/03/22 04:08:31;;;;;;;;;29.75;24.50;;;;;12.58;47.69;102178.94;5056274;28;45347;-55
2022/03/22 04:10:56;;;;;;;;;23.50;19.00;;;;;12.54;47.71;102172.84;5056747;28;45518;-54
2022/03/22 04:13:22;;;;;;;;;20.50;20.25;;;;;12.62;47.74;102181.41;5044511;28;45567;-57
2022/03/22 04:15:47;;;;;;;;;14.75;14.50;;;;;12.61;47.42;102189.47;5039677;28;45324;-53
2022/03/22 04:18:14;;;;;;;;;17.50;16.25;;;;;12.58;47.50;102186.94;5058217;28;45383;-56
2022/03/22 04:20:39;;;;;;;;;22.25;22.25;;;;;12.57;47.29;102194.06;5057468;28;46564;-58
2022/03/22 04:23:05;;;;;;;;;25.00;20.75;;;;;12.52;47.58;102190.72;5038170;28;45368;-52
2022/03/22 04:25:30;;;;;;;;;23.00;20.75;;;;;12.48;48.01;102182.88;5040617;28;45456;-53
2022/03/22 04:33:25;;;;;;;;;29.50;20.75;;;;;12.40;48.06;102181.41;5055906;28;45453;-53
2022/03/22 04:35:51;;;;;;;;;21.25;21.25;;;;;12.44;47.91;102189.28;5056494;28;45473;-52
2022/03/22 04:38:17;;;;;;;;;23.75;21.50;;;;;12.33;47.83;102185.22;5057700;28;45264;-53
2022/03/22 04:40:42;;;;;;;;;22.50;19.50;;;;;12.38;47.90;102201.06;5038398;28;45475;-58
2022/03/22 04:43:07;;;;;;;;;30.50;21.25;;;;;12.34;47.94;102194.94;5043484;28;45727;-59
2022/03/22 04:45:34;;;;;;;;;18.50;16.50;;;;;12.25;48.02;102186.44;5044261;28;45464;-57
2022/03/22 04:47:59;;;;;;;;;20.75;19.00;;;;;12.26;48.42;102198.84;5053112;28;45649;-56
2022/03/22 04:50:25;;;;;;;;;18.50;18.50;;;;;12.22;48.62;102197.22;5048753;28;45429;-60
2022/03/22 04:58:34;;;;;;;;;23.25;21.25;;;;;12.13;48.46;102200.25;5010647;28;45452;-61
2022/03/22 05:01:00;;;;;;;;;25.25;20.50;;;;;12.09;48.85;102204.78;5039616;28;45467;-61
2022/03/22 05:03:25;;;;;;;;;24.00;23.00;;;;;12.06;48.85;102205.78;5056202;28;45406;-53
2022/03/22 05:08:35;;;;;;;;;17.25;14.75;;;;;12.06;48.78;102207.59;5043573;28;45400;-60
2022/03/22 05:11:00;;;;;;;;;29.50;24.00;;;;;12.07;48.53;102214.66;5037290;28;45347;-56
2022/03/22 05:13:26;;;;;;;;;20.75;19.25;;;;;12.02;48.49;102219.28;5046460;28;45360;-57
2022/03/22 05:15:52;;;;;;;;;24.75;22.25;;;;;12.03;48.87;102218.38;5039692;28;45390;-56
2022/03/22 05:18:19;;;;;;;;;25.50;21.25;;;;;12.03;48.73;102223.69;5047366;28;45680;-59
2022/03/22 05:20:45;;;;;;;;;25.50;23.25;;;;;11.99;48.75;102228.28;5037205;28;45248;-60
2022/03/22 05:23:10;;;;;;;;;22.75;19.50;;;;;11.96;48.49;102224.84;5052186;28;45375;-57
2022/03/22 05:25:35;;;;;;;;;25.75;19.25;;;;;11.95;48.86;102220.44;5042776;28;45396;-57
2022/03/22 05:28:05;;;;;;;;;22.25;22.00;;;;;11.92;48.76;102225.88;5056424;28;45725;-56
2022/03/22 05:30:31;;;;;;;;;23.75;19.50;;;;;11.93;48.89;102227.63;5054637;28;46103;-55
2022/03/22 05:32:57;;;;;;;;;23.00;21.00;;;;;11.86;48.80;102234.97;5038827;28;45435;-55
2022/03/22 05:35:23;;;;;;;;;23.50;22.00;;;;;11.88;49.20;102229.59;5052681;28;45353;-59
2022/03/22 05:37:49;;;;;;;;;21.00;19.00;;;;;11.84;48.41;102227.94;5018824;28;45301;-57
2022/03/22 05:40:16;;;;;;;;;26.50;25.00;;;;;11.84;49.14;102238.59;5037708;28;46432;-57
2022/03/22 05:42:42;;;;;;;;;23.00;23.00;;;;;11.83;48.79;102248.38;5050826;28;45545;-55
2022/03/22 05:45:09;;;;;;;;;26.25;25.00;;;;;11.67;48.71;102221.38;5016975;28;45440;-55
2022/03/22 05:47:34;;;;;;;;;29.00;22.00;;;;;11.69;48.70;102223.97;5050270;28;45476;-58
2022/03/22 05:50:00;;;;;;;;;26.25;23.00;;;;;11.74;48.62;102244.22;5049908;28;46136;-53
2022/03/22 05:52:26;;;;;;;;;19.25;17.25;;;;;11.71;48.97;102249.66;5042453;28;45414;-62
2022/03/22 05:54:51;;;;;;;;;28.00;25.50;;;;;11.70;49.38;102245.25;5045559;28;46013;-58
2022/03/22 05:57:16;;;;;;;;;25.75;22.75;;;;;11.71;49.29;102243.44;5033340;28;45498;-56
2022/03/22 05:59:42;;;;;;;;;28.00;27.00;;;;;11.67;48.54;102241.81;5043894;28;45967;-59
2022/03/22 06:02:08;;;;;;;;;23.00;22.50;;;;;11.68;49.20;102248.88;5056431;28;45367;-58
2022/03/22 06:04:34;;;;;;;;;24.00;22.00;;;;;11.70;48.80;102253.25;5045354;28;45326;-58
2022/03/22 06:07:00;;;;;;;;;23.75;22.00;;;;;11.68;48.70;102260.41;5043618;28;45308;-58
2022/03/22 06:09:26;;;;;;;;;25.25;23.00;;;;;11.64;48.86;102264.13;5030427;28;46605;-54
2022/03/22 06:11:51;;;;;;;;;24.75;22.75;;;;;11.65;48.64;102270.31;5055993;28;45307;-57
2022/03/22 06:14:17;;;;;;;;;35.00;26.75;;;;;11.64;48.57;102274.78;5049525;28;45375;-58
2022/03/22 06:16:42;;;;;;;;;23.75;23.00;;;;;11.62;48.59;102276.63;5029769;28;45546;-55
2022/03/22 06:19:07;;;;;;;;;29.75;25.25;;;;;11.63;49.08;102278.38;5039849;28;46804;-58
2022/03/22 06:21:33;;;;;;;;;29.50;23.75;;;;;11.61;48.80;102276.69;5042969;28;45268;-51
2022/03/22 06:23:58;;;;;;;;;23.00;21.75;;;;;11.60;48.93;102277.63;5052548;28;45509;-56
2022/03/22 06:26:24;;;;;;;;;32.50;24.50;;;;;11.62;49.09;102284.63;5035732;28;45633;-55
2022/03/22 06:28:49;;;;;;;;;26.75;23.00;;;;;11.56;49.14;102276.81;5048865;28;45694;-59
2022/03/22 06:31:15;;;;;;;;;27.50;27.00;;;;;11.59;48.62;102276.75;5017936;28;45423;-58
2022/03/22 06:33:41;;;;;;;;;28.00;24.75;;;;;11.55;48.55;102275.09;5016933;28;45549;-57
2022/03/22 06:36:08;;;;;;;;;30.75;23.75;;;;;11.65;48.67;102291.63;5046811;28;45590;-58
2022/03/22 06:38:34;;;;;;;;;24.25;22.50;;;;;11.67;49.05;102289.78;5043235;28;46637;-57
2022/03/22 06:41:00;;;;;;;;;25.50;21.50;;;;;11.53;49.03;102271.59;5047600;28;45269;-60
2022/03/22 06:43:26;;;;;;;;;36.25;28.25;;;;;11.70;48.82;102305.66;5017604;28;45427;-55
2022/03/22 06:45:51;;;;;;;;;32.25;27.50;;;;;11.70;48.83;102306.53;5043517;28;45461;-58
2022/03/22 06:48:17;;;;;;;;;28.50;25.25;;;;;11.70;48.87;102303.00;5054639;28;45939;-59
2022/03/22 06:50:44;;;;;;;;;32.75;28.00;;;;;11.73;49.27;102311.78;5047488;28;45434;-56
2022/03/22 06:53:10;;;;;;;;;28.25;25.25;;;;;11.74;48.43;102313.53;5020952;28;45499;-61
2022/03/22 06:55:37;;;;;;;;;33.25;28.00;;;;;11.74;48.21;102307.34;5036677;28;45336;-58
2022/03/22 06:58:03;;;;;;;;;24.25;23.00;;;;;11.77;48.99;102313.44;5049216;28;47842;-61
2022/03/22 07:00:31;;;;;;;;;36.00;28.25;;;;;11.76;48.69;102310.81;5032002;28;45430;-58
2022/03/22 07:02:57;;;;;;;;;27.50;25.75;;;;;11.79;49.17;102311.59;5053480;28;45371;-63
2022/03/22 07:05:22;;;;;;;;;30.50;28.50;;;;;11.83;48.14;102317.69;5037414;28;45370;-57
2022/03/22 07:07:48;;;;;;;;;34.75;29.75;;;;;11.82;48.21;102308.81;5042838;28;45435;-57
2022/03/22 07:10:16;;;;;;;;;31.25;28.00;;;;;11.80;48.39;102313.34;5050829;28;45563;-63
2022/03/22 07:12:53;;;;;;;;;33.00;27.50;;;;;11.81;48.53;102311.56;5017296;28;45529;-61
2022/03/22 07:15:27;;;;;;;;;29.75;25.75;;;;;11.85;47.99;102314.97;5039591;28;45336;-58
2022/03/22 07:17:53;;;;;;;;;27.00;23.00;;;;;11.87;48.09;102313.16;5054095;28;45169;-61
2022/03/22 07:20:21;;;;;;;;;33.25;28.50;;;;;11.87;47.62;102307.81;5050196;28;45470;-59
2022/03/22 07:22:47;;;;;;;;;42.25;32.50;;;;;11.89;47.66;102313.97;5033131;28;45343;-54
2022/03/22 07:25:13;;;;;;;;;28.00;24.00;;;;;11.94;47.46;102306.66;5049092;28;45424;-58
2022/03/22 07:27:39;;;;;;;;;31.25;28.25;;;;;11.91;48.50;102299.66;5055192;28;45974;-59
2022/03/22 07:30:05;;;;;;;;;32.50;26.50;;;;;12.07;48.10;102318.66;5031133;28;45507;-58
2022/03/22 07:32:31;;;;;;;;;26.75;24.50;;;;;12.15;48.33;102318.41;5036890;28;45447;-57
2022/03/22 07:35:00;;;;;;;;;36.25;31.00;;;;;12.18;47.53;102319.16;5072468;28;45551;-57
2022/03/22 07:37:26;;;;;;;;;34.50;29.25;;;;;12.20;47.22;102317.31;5038091;28;46737;-58
2022/03/22 07:39:52;;;;;;;;;30.00;26.00;;;;;12.16;46.51;102305.00;5054154;28;45489;-56
2022/03/22 07:42:17;;;;;;;;;34.50;30.25;;;;;12.22;46.79;102323.44;5054399;28;45493;-60
2022/03/22 07:44:43;;;;;;;;;39.00;34.50;;;;;12.23;46.92;102317.19;5058503;28;45319;-57
2022/03/22 07:47:08;;;;;;;;;33.25;30.00;;;;;12.28;46.81;102325.03;5058153;28;45494;-62
2022/03/22 07:55:02;;;;;;;;;34.25;29.25;;;;;12.44;46.45;102325.38;5057475;28;45390;-60
2022/03/22 07:57:27;;;;;;;;;31.00;31.00;;;;;12.44;46.73;102317.34;5053654;28;45476;-59
2022/03/22 07:59:55;;;;;;;;;33.00;30.50;;;;;12.48;46.55;102318.97;5056950;28;45462;-61
2022/03/22 08:02:20;;;;;;;;;31.50;30.50;;;;;12.50;46.22;102309.09;5049367;28;45538;-57
2022/03/22 08:04:46;;;;;;;;;36.75;31.00;;;;;12.60;45.96;102318.53;5055275;28;45489;-58
2022/03/22 08:07:11;;;;;;;;;32.75;27.75;;;;;12.63;45.80;102329.97;5054097;28;46975;-55
2022/03/22 08:09:37;;;;;;;;;42.25;36.50;;;;;12.64;45.72;102328.19;5058256;28;45414;-58
2022/03/22 08:12:02;;;;;;;;;40.25;35.50;;;;;12.65;45.78;102329.94;5057996;28;45324;-61
2022/03/22 08:14:28;;;;;;;;;36.00;31.75;;;;;12.72;45.61;102341.22;5058925;28;45254;-59
2022/03/22 08:16:53;;;;;;;;;33.50;32.25;;;;;12.63;45.37;102321.06;5058334;28;45228;-58
2022/03/22 08:19:19;;;;;;;;;43.75;31.75;;;;;12.74;45.44;102336.69;5040384;28;45376;-58
2022/03/22 08:21:46;;;;;;;;;41.75;37.25;;;;;12.79;45.38;102332.94;5058429;28;45343;-61
2022/03/22 08:24:11;;;;;;;;;41.25;33.50;;;;;12.87;45.43;102340.66;5058579;28;45240;-57
2022/03/22 08:26:37;;;;;;;;;46.25;32.25;;;;;12.90;46.34;102330.75;5057819;28;46553;-60
2022/03/22 08:29:03;;;;;;;;;39.25;34.50;;;;;13.00;45.04;102337.44;5057999;28;45994;-57
2022/03/22 08:31:29;;;;;;;;;36.00;31.75;;;;;13.00;44.96;102337.44;5057825;28;45401;-61
2022/03/22 08:33:56;;;;;;;;;40.50;33.50;;;;;12.85;44.81;102311.34;5039418;28;45403;-60
2022/03/22 08:36:22;;;;;;;;;50.00;32.75;;;;;12.99;44.86;102341.06;5056256;28;45630;-60
2022/03/22 08:38:49;;;;;;;;;41.75;34.50;;;;;13.06;44.75;102340.84;5039170;28;45276;-60
2022/03/22 08:41:15;;;;;;;;;48.75;32.75;;;;;13.12;43.85;102343.25;5057944;28;45246;-59
2022/03/22 08:43:40;;;;;;;;;40.00;33.50;;;;;13.14;44.56;102338.72;5058419;28;45251;-61
2022/03/22 08:46:06;;;;;;;;;36.25;35.00;;;;;13.21;44.07;102341.13;5057941;28;45610;-57
2022/03/22 08:48:32;;;;;;;;;34.25;30.75;;;;;13.32;43.28;102338.03;5055114;28;45451;-59
2022/03/22 08:50:58;;;;;;;;;30.75;30.50;;;;;13.29;41.40;102330.16;5055930;28;45193;-59
2022/03/22 08:53:24;;;;;;;;;35.00;33.25;;;;;13.49;41.02;102340.03;5057667;28;45288;-61
2022/03/22 08:55:49;;;;;;;;;39.50;31.75;;;;;13.68;40.38;102341.03;5056453;28;46265;-56
2022/03/22 08:58:16;;;;;;;;;32.75;30.75;;;;;13.86;38.36;102334.91;5057086;28;45387;-59
2022/03/22 09:00:43;;;;;;;;;29.75;28.25;;;;;14.06;37.56;102326.06;5057570;28;45312;-59
2022/03/22 09:03:10;;;;;;;;;28.75;26.50;;;;;14.17;34.64;102318.41;5039069;28;45685;-60
2022/03/22 09:08:20;;;;;;;;;28.25;24.75;;;;;14.59;34.25;102320.16;5057152;28;46031;-60
2022/03/22 09:10:50;;;;;;;;;25.00;21.50;;;;;14.73;33.02;102311.50;5056981;28;45354;-57
2022/03/22 09:13:17;;;;;;;;;22.00;21.50;;;;;15.03;32.12;102326.13;5056946;28;45428;-57
2022/03/22 09:15:43;;;;;;;;;21.00;19.50;;;;;15.19;31.74;102337.00;5046779;28;46272;-55
2022/03/22 09:18:15;;;;;;;;;25.75;23.00;;;;;15.27;29.56;102315.19;5053969;28;45493;-58
2022/03/22 09:20:42;;;;;;;;;21.33;19.67;;;;;15.53;30.06;102335.38;5018996;28;46079;-59
2022/03/22 09:23:09;;;;;;;;;19.00;18.67;;;;;15.63;30.47;102332.19;5036842;28;45535;-60
2022/03/22 09:25:36;;;;;;;;;16.33;16.33;;;;;15.78;28.71;102335.94;5036695;28;46416;-60
2022/03/22 09:28:04;;;;;;;;;18.67;16.33;;;;;15.90;27.88;102327.25;5049558;28;45687;-56
2022/03/22 09:30:30;;;;;;;;;23.00;19.33;;;;;16.07;28.37;102330.91;5046932;28;45474;-58
2022/03/22 09:32:57;;;;;;;;;19.00;18.33;;;;;16.19;27.70;102324.88;5041209;28;45549;-57
2022/03/22 09:35:23;;;;;;;;;22.00;17.00;;;;;16.39;28.31;102330.06;5051679;28;45594;-56
2022/03/22 09:37:49;;;;;;;;;18.00;18.00;;;;;16.61;26.80;102332.47;5051283;28;45455;-57
2022/03/22 09:40:17;;;;;;;;;18.00;16.33;;;;;16.66;27.50;102324.16;5056411;28;45458;-57
2022/03/22 09:42:43;;;;;;;;;20.00;19.00;;;;;16.73;27.23;102326.50;5049723;28;45529;-56
2022/03/22 09:45:24;;;;;;;;;18.00;17.00;;;;;16.82;27.52;102329.63;5020654;28;48149;-54
2022/03/22 09:47:50;;;;;;;;;18.33;17.00;;;;;16.94;27.05;102329.81;5055039;28;45433;-56
2022/03/22 09:50:16;;;;;;;;;19.67;18.00;;;;;16.89;26.24;102314.88;5054281;28;45447;-58
2022/03/22 09:52:43;;;;;;;;;23.00;20.00;;;;;16.86;25.59;102323.13;5056093;28;45386;-59
2022/03/22 09:55:11;;;;;;;;;19.67;16.67;;;;;16.82;26.12;102298.25;5052607;28;45781;-56
2022/03/22 09:57:37;;;;;;;;;21.67;20.67;;;;;16.91;26.19;102329.09;5055859;28;45858;-61
2022/03/22 10:00:09;;;;;;;;;17.00;15.33;;;;;16.84;26.49;102323.22;5055922;28;45353;-57
2022/03/22 10:02:35;;;;;;;;;17.33;16.33;;;;;16.88;25.64;102316.72;5054130;28;45355;-56
2022/03/22 10:05:02;;;;;;;;;18.00;17.00;;;;;16.86;26.50;102312.38;5054663;28;46166;-58
2022/03/22 10:07:27;;;;;;;;;15.33;15.33;;;;;16.79;25.30;102310.00;5035536;28;45419;-58
2022/03/22 10:09:55;;;;;;;;;18.00;17.67;;;;;16.71;26.05;102306.03;5037406;28;45452;-58
2022/03/22 10:12:32;;;;;;;;;21.33;19.00;;;;;16.63;25.48;102319.84;5033981;28;45624;-60
2022/03/22 10:15:17;;;;;;;;;18.00;18.00;;;;;16.65;25.92;102317.06;5022494;28;45621;-60
2022/03/22 10:17:43;;;;;;;;;19.00;19.00;;;;;16.55;24.65;102305.97;5035173;28;45442;-60
2022/03/22 10:20:21;;;;;;;;;19.00;17.00;;;;;16.61;24.30;102304.75;5034178;28;45507;-59
2022/03/22 10:22:54;;;;;;;;;21.33;16.33;;;;;16.52;25.43;102316.84;5035831;28;45438;-58
2022/03/22 10:25:20;;;;;;;;;18.67;18.00;;;;;16.45;26.01;102310.97;5034190;28;45553;-58
2022/03/22 10:27:46;;;;;;;;;16.00;16.00;;;;;16.50;26.17;102306.19;5039555;28;45396;-56
2022/03/22 10:30:12;;;;;;;;;18.00;18.00;;;;;16.48;24.69;102299.19;5054415;28;45340;-58
2022/03/22 10:32:39;;;;;;;;;16.00;16.00;;;;;16.55;24.88;102308.66;5053065;28;45492;-59
2022/03/22 10:35:13;;;;;;;;;19.67;18.33;;;;;16.51;25.26;102315.13;5035211;28;45309;-60
2022/03/22 10:37:43;;;;;;;;;20.33;18.00;;;;;16.57;25.44;102308.56;5035280;28;45410;-61
2022/03/22 10:40:27;;;;;;;;;16.67;16.67;;;;;16.63;25.75;102313.59;5035433;28;45380;-56
2022/03/22 10:42:58;;;;;;;;;16.67;16.67;;;;;16.64;25.24;102307.28;5035583;28;45606;-58
2022/03/22 10:45:27;;;;;;;;;14.67;11.67;;;;;16.64;24.94;102308.13;5043664;28;45621;-59
2022/03/22 10:47:53;;;;;;;;;21.67;17.33;;;;;16.67;25.48;102299.06;5055073;28;45368;-61
2022/03/22 10:50:18;;;;;;;;;18.33;18.33;;;;;16.65;23.41;102282.13;5055219;28;45805;-57
2022/03/22 10:52:55;;;;;;;;;15.33;11.67;;;;;16.74;25.44;102295.09;5037458;28;45553;-54
2022/03/22 10:55:23;;;;;;;;;21.00;19.00;;;;;16.84;25.34;102296.34;5055957;28;45397;-63
2022/03/22 10:57:52;;;;;;;;;18.67;18.67;;;;;16.81;25.96;102291.16;5055183;28;45362;-58
2022/03/22 11:00:18;;;;;;;;;20.00;18.67;;;;;16.94;25.56;102296.72;5054740;28;45403;-63
2022/03/22 11:02:49;;;;;;;;;19.00;16.67;;;;;16.97;25.17;102292.03;5033799;28;45582;-65
2022/03/22 11:05:15;;;;;;;;;18.67;18.67;;;;;17.03;24.56;102286.28;5054221;28;46054;-60
2022/03/22 11:07:42;;;;;;;;;22.00;19.00;;;;;17.13;25.36;102283.09;5036665;28;45349;-62
2022/03/22 11:10:07;;;;;;;;;21.00;19.67;;;;;17.24;25.15;102273.47;5054662;28;45237;-64
2022/03/22 11:12:34;;;;;;;;;21.33;16.67;;;;;17.34;24.50;102281.88;5054702;28;45591;-65
2022/03/22 11:15:02;;;;;;;;;19.00;19.00;;;;;17.44;23.66;102279.50;5054706;28;46176;-65
2022/03/22 11:17:35;;;;;;;;;18.33;18.33;;;;;17.55;24.52;102275.22;5053622;28;45477;-64
2022/03/22 11:20:04;;;;;;;;;19.00;18.33;;;;;17.69;24.16;102277.13;5056822;28;45375;-62
2022/03/22 11:22:31;;;;;;;;;18.00;17.67;;;;;17.69;23.38;102274.44;5036450;28;45564;-63
2022/03/22 11:25:09;;;;;;;;;21.67;20.00;;;;;17.69;24.18;102274.44;5037484;28;45795;-63
2022/03/22 11:27:35;;;;;;;;;23.33;19.67;;;;;17.80;23.37;102271.13;5037686;28;45414;-60
2022/03/22 11:30:03;;;;;;;;;22.00;22.00;;;;;17.79;23.19;102270.25;5021024;28;45461;-66
2022/03/22 11:35:15;;;;;;;;;17.00;17.00;;;;;18.02;23.74;102263.50;5056908;28;45677;-64
2022/03/22 11:37:41;;;;;;;;;19.00;19.00;;;;;18.02;22.80;102263.50;5057589;28;45288;-62
2022/03/22 11:43:08;;;;;;;;;17.33;15.00;;;;;18.22;23.79;102233.50;5057923;28;45395;-64
2022/03/22 11:45:47;;;;;;;;;18.67;16.67;;;;;18.39;24.57;102232.47;5057512;28;45346;-57
2022/03/22 11:48:13;;;;;;;;;25.00;21.67;;;;;18.53;23.30;102218.13;5057428;28;45411;-63